Time;durP1;ratioP1;P1;durP2;ratioP2;P2;SDS_P1;SDS_P2;PMS_P1;PMS_P2;Temp;Humidity;BMP_temperature;BMP_pressure;BME280_temperature;BME280_humidity;BME280_pressure;Samples;Min_cycle;Max_cycle;Signal;HPM_P1;HPM_P2
2023/05/26 00:01:14;;;;;;;59.72;28.30;;;7.40;99.90;;;;;;4927701;28;20055;-78
2023/05/26 00:03:44;;;;;;;47.53;25.95;;;7.30;99.90;;;;;;4942183;28;20047;-78
2023/05/26 00:06:12;;;;;;;48.95;27.65;;;7.30;99.90;;;;;;4923847;28;20110;-78
2023/05/26 00:08:39;;;;;;;51.70;27.85;;;7.30;99.90;;;;;;4936046;28;20308;-78
2023/05/26 00:11:06;;;;;;;55.45;27.75;;;7.30;99.90;;;;;;4926676;28;20459;-78
2023/05/26 00:13:34;;;;;;;51.72;26.55;;;7.20;99.90;;;;;;4957899;28;20301;-78
2023/05/26 00:16:01;;;;;;;48.08;28.20;;;7.20;99.90;;;;;;4939166;28;20035;-78
2023/05/26 00:18:28;;;;;;;52.95;27.85;;;7.30;99.90;;;;;;4926568;28;20051;-78
2023/05/26 00:20:54;;;;;;;59.88;27.83;;;7.20;99.90;;;;;;4934616;28;20069;-79
2023/05/26 00:23:22;;;;;;;50.33;30.52;;;7.10;99.90;;;;;;4958428;28;20069;-79
2023/05/26 00:25:49;;;;;;;59.65;29.83;;;7.10;99.90;;;;;;4940169;28;20130;-78
2023/05/26 00:28:16;;;;;;;55.63;28.88;;;7.00;99.90;;;;;;4953647;28;20071;-78
2023/05/26 00:30:43;;;;;;;60.88;29.42;;;6.90;99.90;;;;;;4940789;28;20043;-77
2023/05/26 00:33:11;;;;;;;54.55;29.27;;;7.00;99.90;;;;;;4933159;28;20047;-78
2023/05/26 00:35:38;;;;;;;49.33;30.83;;;7.00;99.90;;;;;;4955171;28;20041;-78
2023/05/26 00:38:05;;;;;;;61.58;31.67;;;6.90;99.90;;;;;;4930472;28;20047;-78
2023/05/26 00:40:35;;;;;;;63.00;31.85;;;6.90;99.90;;;;;;4919217;28;20528;-78
2023/05/26 00:43:02;;;;;;;75.90;33.83;;;6.90;99.90;;;;;;4937388;28;20186;-77
2023/05/26 00:45:29;;;;;;;45.03;29.25;;;6.80;99.90;;;;;;4933373;28;20360;-77
2023/05/26 00:47:55;;;;;;;53.88;31.05;;;6.80;99.90;;;;;;4939441;28;20464;-78
2023/05/26 00:50:22;;;;;;;54.50;30.92;;;6.80;99.90;;;;;;4939281;28;20137;-78
2023/05/26 00:52:51;;;;;;;56.63;29.70;;;6.70;99.90;;;;;;4943946;28;20421;-77
2023/05/26 00:55:20;;;;;;;52.08;29.67;;;6.70;99.90;;;;;;4937545;28;20309;-77
2023/05/26 00:57:47;;;;;;;53.53;30.95;;;6.70;99.90;;;;;;4938572;28;20051;-78
2023/05/26 01:00:14;;;;;;;42.30;30.25;;;6.50;99.90;;;;;;4924042;28;20114;-78
2023/05/26 01:02:44;;;;;;;45.03;29.60;;;6.40;99.90;;;;;;4938535;28;20060;-78
2023/05/26 01:05:15;;;;;;;51.20;31.17;;;6.50;99.90;;;;;;4920413;28;20547;-77
2023/05/26 01:07:42;;;;;;;58.88;31.33;;;6.50;99.90;;;;;;4933930;28;20046;-78
2023/05/26 01:10:10;;;;;;;51.13;30.50;;;6.40;99.90;;;;;;4938021;28;20050;-78
2023/05/26 01:12:55;;;;;;;54.70;32.05;;;6.30;99.90;;;;;;4927147;28;20298;-78
2023/05/26 01:15:28;;;;;;;59.33;31.13;;;6.40;99.90;;;;;;4939282;28;20050;-78
2023/05/26 01:18:14;;;;;;;46.20;30.02;;;6.30;99.90;;;;;;4941755;28;20655;-79
2023/05/26 01:20:53;;;;;;;47.83;30.58;;;6.30;99.90;;;;;;4932653;28;20051;-78
2023/05/26 01:23:46;;;;;;;46.10;30.00;;;6.20;99.90;;;;;;4939062;28;20042;-78
2023/05/26 01:26:23;;;;;;;55.72;29.85;;;6.20;99.90;;;;;;4946917;28;20459;-77
2023/05/26 01:28:58;;;;;;;51.10;30.58;;;6.10;99.90;;;;;;4922568;29;20043;-77
2023/05/26 01:31:25;;;;;;;52.20;31.13;;;6.10;99.90;;;;;;4933182;28;20039;-78
2023/05/26 01:33:52;;;;;;;45.75;30.52;;;6.00;99.90;;;;;;4933238;28;20047;-78
2023/05/26 01:36:19;;;;;;;56.80;30.20;;;6.00;99.90;;;;;;4920391;28;20062;-77
2023/05/26 01:38:46;;;;;;;49.03;29.80;;;6.00;99.90;;;;;;4949269;28;20046;-78
2023/05/26 01:41:37;;;;;;;53.20;30.65;;;5.90;99.90;;;;;;4933564;28;20230;-78
2023/05/26 07:20:23;;;;;;;44.90;28.85;;;10.60;99.90;;;;;;4943493;28;20635;-77
2023/05/26 07:22:50;;;;;;;55.00;31.48;;;10.30;99.90;;;;;;4928781;28;20555;-77
2023/05/26 07:25:21;;;;;;;56.85;30.30;;;10.40;99.90;;;;;;4934092;28;20136;-77
2023/05/26 07:27:49;;;;;;;52.97;31.33;;;10.50;99.90;;;;;;4931789;28;20050;-77
2023/05/26 07:30:15;;;;;;;54.03;31.38;;;10.40;99.90;;;;;;4934104;28;20051;-78
2023/05/26 07:32:56;;;;;;;49.28;30.35;;;10.40;99.90;;;;;;4921914;28;20125;-78
2023/05/26 07:35:23;;;;;;;56.63;30.92;;;10.50;99.90;;;;;;4919614;28;20035;-78
2023/05/26 07:37:50;;;;;;;46.70;32.25;;;10.80;99.90;;;;;;4929792;28;20414;-78
2023/05/26 07:40:17;;;;;;;52.20;32.50;;;10.80;99.90;;;;;;4952685;28;20043;-78
2023/05/26 07:42:44;;;;;;;62.15;33.35;;;10.90;99.90;;;;;;4935641;28;20047;-78
2023/05/26 07:45:11;;;;;;;62.50;35.38;;;10.90;99.90;;;;;;4934272;28;20047;-78
2023/05/26 07:47:38;;;;;;;46.10;32.78;;;10.90;99.90;;;;;;4927166;28;20055;-77
2023/05/26 07:50:05;;;;;;;54.22;33.85;;;11.10;99.90;;;;;;4932513;28;20073;-77
2023/05/26 07:52:32;;;;;;;49.78;36.75;;;11.40;99.90;;;;;;4940822;28;20070;-77
2023/05/26 07:54:59;;;;;;;49.90;34.60;;;11.50;99.90;;;;;;4924166;28;20137;-77
2023/05/26 07:57:25;;;;;;;47.45;32.97;;;11.80;99.90;;;;;;4934861;28;20035;-77
2023/05/26 07:59:56;;;;;;;46.30;34.97;;;12.30;99.90;;;;;;4916249;28;20059;-77
2023/05/26 08:02:23;;;;;;;44.60;33.13;;;12.70;99.90;;;;;;4934913;28;20051;-78
2023/05/26 08:04:50;;;;;;;41.85;33.63;;;12.90;99.90;;;;;;4919509;28;20386;-77
2023/05/26 08:07:17;;;;;;;42.55;34.50;;;13.20;99.90;;;;;;4923935;28;20039;-77
2023/05/26 08:09:48;;;;;;;47.08;33.00;;;13.70;99.90;;;;;;4923994;28;20042;-76
2023/05/26 08:12:15;;;;;;;54.00;37.90;;;13.60;99.90;;;;;;4937809;28;20183;-76
2023/05/26 08:14:41;;;;;;;42.70;36.70;;;13.60;99.90;;;;;;4923316;28;20215;-76
2023/05/26 08:17:08;;;;;;;57.13;37.40;;;14.00;99.90;;;;;;4933551;28;20102;-76
2023/05/26 08:19:35;;;;;;;46.90;37.15;;;14.20;99.90;;;;;;4935562;28;20055;-76
2023/05/26 08:22:02;;;;;;;51.40;35.90;;;14.70;99.90;;;;;;4936199;28;20046;-77
2023/05/26 08:24:29;;;;;;;50.90;33.60;;;14.70;99.90;;;;;;4932042;28;20051;-76
2023/05/26 08:26:55;;;;;;;38.85;32.65;;;14.30;99.90;;;;;;4924278;28;20047;-76
2023/05/26 08:29:22;;;;;;;43.65;33.63;;;14.60;99.90;;;;;;4939171;28;20047;-76
2023/05/26 08:31:49;;;;;;;43.03;35.80;;;15.10;99.90;;;;;;4925025;28;20404;-76
2023/05/26 08:34:17;;;;;;;46.88;35.00;;;15.50;99.90;;;;;;4939043;28;20558;-76
2023/05/26 08:36:46;;;;;;;38.63;34.28;;;15.30;99.90;;;;;;4919173;28;20039;-77
2023/05/26 08:39:13;;;;;;;42.35;35.30;;;15.20;99.90;;;;;;4931969;28;20098;-76
2023/05/26 08:42:03;;;;;;;42.40;35.00;;;14.60;99.90;;;;;;4936773;28;20658;-77
2023/05/26 08:44:30;;;;;;;42.50;35.00;;;14.60;99.90;;;;;;4937126;28;20117;-77
2023/05/26 08:47:00;;;;;;;39.55;34.55;;;15.00;99.90;;;;;;4935291;28;20409;-77
2023/05/26 08:49:30;;;;;;;38.25;33.42;;;15.70;99.90;;;;;;4932607;28;20146;-77
2023/05/26 08:52:07;;;;;;;41.08;34.28;;;15.90;99.90;;;;;;4921663;28;20050;-76
2023/05/26 08:54:34;;;;;;;45.25;34.50;;;16.00;99.90;;;;;;4937297;28;20062;-76
2023/05/26 08:57:04;;;;;;;41.17;32.28;;;16.40;99.90;;;;;;4924213;28;20121;-76
2023/05/26 08:59:31;;;;;;;41.97;33.63;;;16.80;99.90;;;;;;4936602;28;20051;-76
2023/05/26 09:01:59;;;;;;;38.03;33.83;;;16.60;99.90;;;;;;4916463;28;20051;-76
2023/05/26 09:04:26;;;;;;;45.35;33.50;;;15.70;99.90;;;;;;4916393;28;20082;-77
2023/05/26 09:06:52;;;;;;;46.92;34.80;;;15.20;99.90;;;;;;4933965;28;20066;-75
2023/05/26 09:09:40;;;;;;;38.75;31.85;;;15.70;99.90;;;;;;4918341;28;20161;-76
2023/05/26 09:12:11;;;;;;;40.38;32.20;;;16.60;99.90;;;;;;4923510;28;20114;-76
2023/05/26 09:14:39;;;;;;;39.67;32.45;;;16.50;99.90;;;;;;4931441;28;20053;-76
2023/05/26 09:17:06;;;;;;;44.40;32.80;;;16.60;99.90;;;;;;4933426;28;20057;-76
2023/05/26 09:19:33;;;;;;;41.63;32.50;;;16.30;99.90;;;;;;4918547;28;20059;-76
2023/05/26 09:22:08;;;;;;;42.28;32.05;;;16.80;99.90;;;;;;4935282;28;20590;-76
2023/05/26 09:24:49;;;;;;;48.45;32.35;;;16.70;99.90;;;;;;4923413;28;20428;-76
2023/05/26 09:27:19;;;;;;;39.58;33.55;;;17.00;99.90;;;;;;4939750;28;20039;-76
2023/05/26 09:29:50;;;;;;;42.75;33.63;;;16.30;99.90;;;;;;4938319;28;21217;-75
2023/05/26 09:32:17;;;;;;;47.53;35.60;;;16.20;99.90;;;;;;4934110;28;20050;-76
2023/05/26 09:34:44;;;;;;;38.03;33.42;;;15.80;99.90;;;;;;4933358;28;20101;-76
2023/05/26 09:37:11;;;;;;;46.55;34.25;;;15.50;99.90;;;;;;4927797;28;20063;-76
2023/05/26 09:39:38;;;;;;;36.58;31.77;;;15.30;99.90;;;;;;4933446;28;20452;-76
2023/05/26 09:42:09;;;;;;;43.92;32.85;;;15.80;99.90;;;;;;4927466;28;20397;-77
2023/05/26 09:44:35;;;;;;;42.63;32.80;;;15.60;99.90;;;;;;4929318;28;20548;-76
2023/05/26 09:47:02;;;;;;;37.67;31.77;;;16.10;99.90;;;;;;4916380;28;20109;-76
2023/05/26 09:49:31;;;;;;;42.63;33.65;;;16.00;99.90;;;;;;4930912;28;20039;-76
2023/05/26 09:51:59;;;;;;;40.67;32.20;;;16.80;99.90;;;;;;4916637;28;20078;-76
2023/05/26 09:54:39;;;;;;;42.17;32.38;;;16.20;99.90;;;;;;4934673;28;20519;-76
2023/05/26 09:57:12;;;;;;;47.45;32.97;;;16.20;99.90;;;;;;4914010;28;20131;-76
2023/05/26 09:59:42;;;;;;;;;;;16.30;99.90;;;;;;4934040;28;20085;-77
2023/05/26 10:02:20;;;;;;;39.38;31.60;;;16.90;99.90;;;;;;4930095;28;19922;-76
2023/05/26 10:04:49;;;;;;;37.22;33.25;;;17.10;99.90;;;;;;4931941;28;22339;-76
2023/05/26 10:07:18;;;;;;;44.50;34.53;;;17.60;99.90;;;;;;4941270;28;20949;-76
2023/05/26 10:09:56;;;;;;;41.47;32.30;;;18.10;99.90;;;;;;4946599;28;20632;-76
2023/05/26 10:12:28;;;;;;;45.28;35.28;;;17.30;99.90;;;;;;4932871;28;20137;-76
2023/05/26 10:14:55;;;;;;;38.53;30.48;;;17.00;99.90;;;;;;4919176;28;20050;-77
2023/05/26 10:17:23;;;;;;;40.83;34.45;;;17.30;99.90;;;;;;4917445;28;20104;-77
2023/05/26 10:19:55;;;;;;;41.97;35.10;;;17.50;99.90;;;;;;4940541;28;20101;-77
2023/05/26 10:22:31;;;;;;;44.03;34.03;;;17.80;99.90;;;;;;4931130;28;20168;-76
2023/05/26 10:25:31;;;;;;;39.40;34.33;;;17.90;99.90;;;;;;4931789;28;20055;-76
2023/05/26 10:28:19;;;;;;;40.17;34.03;;;17.40;99.90;;;;;;4885008;28;20047;-76
2023/05/26 10:30:46;;;;;;;41.45;32.63;;;17.40;99.90;;;;;;4949071;28;20058;-76
2023/05/26 10:33:14;;;;;;;38.60;34.47;;;16.90;99.90;;;;;;4932287;28;20669;-76
2023/05/26 10:35:56;;;;;;;42.88;34.15;;;16.10;99.90;;;;;;4929476;28;20046;-76
2023/05/26 10:38:28;;;;;;;44.40;35.22;;;16.00;99.90;;;;;;4935884;28;20047;-76
2023/05/26 10:40:55;;;;;;;46.45;35.25;;;16.10;99.90;;;;;;4948183;28;20050;-76
2023/05/26 10:43:24;;;;;;;39.15;34.60;;;16.40;99.90;;;;;;4936499;28;20895;-76
2023/05/26 10:45:57;;;;;;;40.15;33.05;;;16.80;99.90;;;;;;4929583;28;20055;-76
2023/05/26 10:48:32;;;;;;;43.57;32.33;;;17.20;99.90;;;;;;4939493;28;20070;-76
2023/05/26 10:50:59;;;;;;;36.67;32.78;;;17.70;99.90;;;;;;4931042;28;20295;-75
2023/05/26 10:53:30;;;;;;;44.47;32.28;;;18.00;99.90;;;;;;4934134;28;20054;-76
2023/05/26 10:56:02;;;;;;;34.00;30.40;;;17.80;99.90;;;;;;4929378;28;20043;-76
2023/05/26 10:58:33;;;;;;;35.38;31.88;;;17.50;99.90;;;;;;4939909;28;20450;-77
2023/05/26 11:01:06;;;;;;;44.25;36.38;;;17.20;99.90;;;;;;4923630;28;20126;-76
2023/05/26 11:03:34;;;;;;;41.67;32.00;;;17.30;99.90;;;;;;4916823;28;20995;-76
2023/05/26 11:06:02;;;;;;;41.25;35.05;;;17.50;99.90;;;;;;4941810;28;20043;-75
2023/05/26 11:08:43;;;;;;;38.47;34.40;;;17.10;99.90;;;;;;4942058;28;20046;-76
2023/05/26 11:11:11;;;;;;;39.85;35.70;;;17.00;99.90;;;;;;4958343;28;20591;-76
2023/05/26 11:13:40;;;;;;;45.97;36.75;;;17.50;99.90;;;;;;4932964;28;20035;-75
2023/05/26 11:16:15;;;;;;;41.22;35.03;;;17.20;99.90;;;;;;4940524;28;20732;-78
2023/05/26 11:18:51;;;;;;;40.85;36.42;;;17.60;99.90;;;;;;4926596;28;20050;-76
2023/05/26 11:21:22;;;;;;;41.45;30.95;;;18.10;99.90;;;;;;4937614;28;20582;-76
2023/05/26 11:23:51;;;;;;;39.25;35.03;;;18.00;99.90;;;;;;4929320;28;20070;-76
2023/05/26 11:26:18;;;;;;;42.63;34.90;;;18.00;99.90;;;;;;4935118;28;20483;-75
2023/05/26 11:28:46;;;;;;;39.25;35.13;;;18.20;99.90;;;;;;4935158;28;20043;-76
2023/05/26 11:31:18;;;;;;;40.72;34.92;;;18.30;99.90;;;;;;4926049;28;20412;-76
2023/05/26 11:33:46;;;;;;;42.58;35.00;;;18.30;99.90;;;;;;4925364;28;20133;-76
2023/05/26 11:36:15;;;;;;;39.55;35.47;;;18.50;99.90;;;;;;4947411;28;20047;-75
2023/05/26 11:38:47;;;;;;;39.67;35.55;;;18.40;99.90;;;;;;4934036;28;20207;-77
2023/05/26 11:41:15;;;;;;;37.67;33.83;;;18.50;99.90;;;;;;4927494;28;20097;-77
2023/05/26 11:43:45;;;;;;;38.35;34.60;;;18.80;99.90;;;;;;4962882;28;20058;-77
2023/05/26 11:46:15;;;;;;;37.28;33.78;;;18.70;99.90;;;;;;4941350;28;20574;-77
2023/05/26 11:48:43;;;;;;;39.15;35.05;;;18.90;99.90;;;;;;4959385;28;20059;-76
2023/05/26 11:51:15;;;;;;;41.03;36.60;;;18.90;99.90;;;;;;4940771;28;20528;-77
2023/05/26 11:53:44;;;;;;;45.70;37.60;;;18.30;99.90;;;;;;4939669;28;20063;-77
2023/05/26 11:56:13;;;;;;;39.55;35.63;;;18.60;99.90;;;;;;4941783;28;20042;-76
2023/05/26 11:58:42;;;;;;;37.67;34.17;;;18.60;99.90;;;;;;4943097;28;20606;-76
2023/05/26 12:01:10;;;;;;;39.70;35.72;;;18.20;99.90;;;;;;4943340;28;20563;-76
2023/05/26 12:03:44;;;;;;;38.78;34.63;;;18.20;99.90;;;;;;4944342;28;20050;-77
2023/05/26 12:06:19;;;;;;;38.50;34.90;;;18.30;99.90;;;;;;4945645;28;20042;-78
2023/05/26 12:08:48;;;;;;;40.33;36.10;;;18.50;99.90;;;;;;4943864;28;20157;-77
2023/05/26 12:11:23;;;;;;;39.67;35.60;;;18.30;99.90;;;;;;4945810;28;20047;-77
2023/05/26 12:13:57;;;;;;;37.83;34.20;;;18.50;99.90;;;;;;4942320;28;20182;-76
2023/05/26 12:16:43;;;;;;;39.05;35.63;;;18.60;99.90;;;;;;4940389;28;20042;-78
2023/05/26 12:19:12;;;;;;;39.88;35.80;;;18.60;99.90;;;;;;4938510;28;20051;-77
2023/05/26 12:21:41;;;;;;;39.95;35.92;;;18.60;99.90;;;;;;4937879;28;20051;-77
2023/05/26 12:24:08;;;;;;;41.30;37.33;;;18.90;99.90;;;;;;4941313;28;20070;-78
2023/05/26 12:26:35;;;;;;;44.75;38.85;;;18.90;99.90;;;;;;4942953;28;20038;-77
2023/05/26 12:29:11;;;;;;;41.95;37.78;;;18.60;99.90;;;;;;4941984;28;20030;-76
2023/05/26 12:31:38;;;;;;;40.97;37.40;;;19.00;99.90;;;;;;4943443;28;20398;-78
2023/05/26 12:34:07;;;;;;;41.03;37.38;;;19.00;99.90;;;;;;4927394;28;20050;-75
2023/05/26 12:36:34;;;;;;;41.28;37.30;;;18.80;99.90;;;;;;4940541;28;20231;-76
2023/05/26 12:39:01;;;;;;;41.88;38.33;;;18.90;99.90;;;;;;4925320;28;20074;-76
2023/05/26 12:41:28;;;;;;;44.42;40.72;;;18.80;99.90;;;;;;4928448;28;20030;-75
2023/05/26 12:43:54;;;;;;;42.78;39.58;;;18.60;99.90;;;;;;4944975;28;20042;-75
2023/05/26 12:46:21;;;;;;;41.28;38.08;;;17.80;99.90;;;;;;4934924;28;20043;-75
2023/05/26 12:48:48;;;;;;;43.25;39.30;;;17.90;99.90;;;;;;4937798;28;20051;-75
2023/05/26 12:51:16;;;;;;;41.80;38.72;;;18.50;99.90;;;;;;4941385;28;20526;-75
2023/05/26 12:53:43;;;;;;;42.97;39.97;;;18.00;99.90;;;;;;4941767;28;20087;-76
2023/05/26 12:56:13;;;;;;;44.63;41.55;;;18.00;99.90;;;;;;4937589;28;20051;-75
2023/05/26 12:58:43;;;;;;;44.45;41.28;;;17.60;99.90;;;;;;4927886;28;20093;-76
2023/05/26 13:01:10;;;;;;;44.58;41.58;;;17.70;99.90;;;;;;4941204;28;20694;-77
2023/05/26 13:03:39;;;;;;;44.97;41.83;;;18.10;99.90;;;;;;4929677;28;20065;-76
2023/05/26 13:06:07;;;;;;;45.08;41.75;;;18.50;99.90;;;;;;4944038;28;20126;-75
2023/05/26 13:08:35;;;;;;;44.60;41.20;;;18.30;99.90;;;;;;4956648;28;20566;-75
2023/05/26 13:11:02;;;;;;;47.05;43.42;;;18.00;99.90;;;;;;4959165;28;20197;-77
2023/05/26 13:13:38;;;;;;;46.28;42.13;;;17.60;99.90;;;;;;4937688;28;20055;-80
2023/05/26 13:16:06;;;;;;;46.70;42.67;;;17.80;99.90;;;;;;4925756;28;20121;-79
2023/05/26 13:18:50;;;;;;;46.50;42.95;;;18.10;99.90;;;;;;4945211;28;20059;-78
2023/05/26 13:21:17;;;;;;;48.03;43.80;;;17.60;99.90;;;;;;4937303;28;20110;-77
2023/05/26 13:23:44;;;;;;;45.65;42.13;;;17.90;99.90;;;;;;4949814;28;20055;-76
2023/05/26 13:26:12;;;;;;;48.17;44.58;;;18.10;99.90;;;;;;4939506;28;20516;-76
2023/05/26 13:28:38;;;;;;;47.53;43.65;;;17.80;99.90;;;;;;4940175;28;20545;-76
2023/05/26 13:31:05;;;;;;;46.92;43.20;;;17.40;99.90;;;;;;4942327;28;20547;-77
2023/05/26 13:33:32;;;;;;;45.10;41.53;;;17.80;99.90;;;;;;4942247;28;20045;-77
2023/05/26 13:35:59;;;;;;;45.80;42.22;;;18.30;99.90;;;;;;4945540;28;20150;-75
2023/05/26 13:38:26;;;;;;;46.30;42.55;;;18.50;99.90;;;;;;4941589;28;20050;-76
2023/05/26 13:40:54;;;;;;;45.95;42.60;;;18.60;99.90;;;;;;4926547;28;20050;-76
2023/05/26 13:43:22;;;;;;;46.80;43.10;;;18.80;99.90;;;;;;4942700;28;20137;-76
2023/05/26 13:45:49;;;;;;;46.35;42.47;;;19.20;99.90;;;;;;4948880;28;20611;-77
2023/05/26 13:48:24;;;;;;;45.45;41.72;;;19.50;99.90;;;;;;4941793;28;20050;-77
2023/05/26 13:50:51;;;;;;;45.13;41.53;;;19.00;99.90;;;;;;4927174;28;20444;-76
2023/05/26 13:53:19;;;;;;;45.67;41.97;;;18.50;99.90;;;;;;4926213;28;20684;-77
2023/05/26 13:55:46;;;;;;;43.88;40.45;;;18.90;99.90;;;;;;4927308;28;20043;-77
2023/05/26 13:58:13;;;;;;;45.20;41.38;;;19.00;99.90;;;;;;4940302;28;20043;-78
2023/05/26 14:00:41;;;;;;;45.75;41.80;;;18.80;99.90;;;;;;4926174;28;20129;-76
2023/05/26 14:03:09;;;;;;;44.38;40.75;;;19.10;99.90;;;;;;4944679;28;20054;-77
2023/05/26 14:05:36;;;;;;;43.53;39.75;;;19.00;99.90;;;;;;4936530;28;20047;-77
2023/05/26 14:08:05;;;;;;;44.20;40.10;;;18.70;99.90;;;;;;4925179;28;20055;-78
2023/05/26 14:10:33;;;;;;;42.72;39.20;;;17.80;99.90;;;;;;4938820;28;20054;-77
2023/05/26 14:13:00;;;;;;;42.58;38.88;;;17.90;99.90;;;;;;4941151;28;20051;-76
2023/05/26 14:15:28;;;;;;;41.70;38.17;;;18.10;99.90;;;;;;4933926;28;20062;-76
2023/05/26 14:17:56;;;;;;;42.50;38.45;;;18.10;99.90;;;;;;4943204;28;20050;-75
2023/05/26 14:20:34;;;;;;;40.53;37.22;;;17.80;99.90;;;;;;4937427;28;20081;-75
2023/05/26 14:23:22;;;;;;;41.90;38.50;;;17.50;99.90;;;;;;4926674;28;20050;-78
2023/05/26 14:25:50;;;;;;;40.88;37.33;;;17.70;99.90;;;;;;4941271;28;20325;-76
2023/05/26 14:28:17;;;;;;;45.50;41.90;;;17.70;99.90;;;;;;4938244;28;20039;-76
2023/05/26 14:30:44;;;;;;;43.28;39.80;;;18.30;99.90;;;;;;4951912;28;20054;-76
2023/05/26 14:33:11;;;;;;;44.40;40.67;;;18.40;99.90;;;;;;4937962;28;20035;-76
2023/05/26 14:35:38;;;;;;;44.72;41.45;;;17.70;99.90;;;;;;4923797;28;20058;-75
2023/05/26 14:38:05;;;;;;;42.60;39.05;;;17.10;99.90;;;;;;4939531;28;20119;-74
2023/05/26 14:40:32;;;;;;;42.30;39.17;;;17.80;99.90;;;;;;4951314;28;20051;-76
2023/05/26 14:42:59;;;;;;;45.33;41.22;;;17.10;99.90;;;;;;4927542;28;20039;-76
2023/05/26 14:45:26;;;;;;;43.55;39.58;;;16.50;99.90;;;;;;4938384;28;20051;-77
2023/05/26 14:47:53;;;;;;;43.13;39.88;;;16.70;99.90;;;;;;4943668;28;20089;-79
2023/05/26 14:50:20;;;;;;;42.72;39.03;;;17.20;99.90;;;;;;4928377;28;20077;-80
2023/05/26 14:52:49;;;;;;;42.90;39.40;;;17.00;99.90;;;;;;4956551;28;20035;-78
2023/05/26 14:55:17;;;;;;;43.47;39.60;;;17.30;99.90;;;;;;4942374;28;20473;-75
2023/05/26 14:57:44;;;;;;;42.70;38.78;;;17.70;99.90;;;;;;4942491;28;20047;-76
2023/05/26 15:00:12;;;;;;;43.25;39.08;;;18.10;99.90;;;;;;4941437;28;20075;-75
2023/05/26 15:02:39;;;;;;;46.22;41.65;;;18.30;99.90;;;;;;4939168;28;20142;-76
2023/05/26 15:05:07;;;;;;;43.67;39.83;;;17.30;99.90;;;;;;4929620;28;20432;-76
2023/05/26 15:07:35;;;;;;;42.45;39.08;;;17.20;99.90;;;;;;4938832;28;20051;-75
2023/05/26 15:10:02;;;;;;;43.13;39.47;;;17.70;99.90;;;;;;4941770;28;20261;-75
2023/05/26 15:12:30;;;;;;;45.17;41.13;;;18.00;99.90;;;;;;4943842;28;20047;-76
2023/05/26 15:14:57;;;;;;;45.78;41.00;;;17.90;99.90;;;;;;4940280;28;20046;-77
2023/05/26 15:17:23;;;;;;;42.92;39.00;;;18.10;99.90;;;;;;4938515;28;20043;-76
2023/05/26 15:19:50;;;;;;;44.20;40.10;;;18.30;99.90;;;;;;4924742;28;20039;-76
2023/05/26 15:22:17;;;;;;;42.30;38.40;;;18.20;99.90;;;;;;4930133;28;20042;-76
2023/05/26 15:24:44;;;;;;;43.60;39.63;;;17.90;99.90;;;;;;4939687;28;20126;-75
2023/05/26 15:27:11;;;;;;;42.45;38.60;;;17.80;99.90;;;;;;4935894;28;20373;-75
2023/05/26 15:29:41;;;;;;;44.28;40.42;;;17.90;99.90;;;;;;4962061;28;20189;-75
2023/05/26 15:32:08;;;;;;;42.65;39.35;;;17.90;99.90;;;;;;4930951;28;20055;-75
2023/05/26 15:34:34;;;;;;;42.45;38.53;;;18.00;99.90;;;;;;4925593;28;20564;-75
2023/05/26 15:37:01;;;;;;;40.80;37.72;;;18.30;99.90;;;;;;4957514;28;20046;-76
2023/05/26 15:39:28;;;;;;;41.53;37.67;;;18.50;99.90;;;;;;4943054;28;20051;-76
2023/05/26 15:41:55;;;;;;;41.20;38.28;;;18.40;99.90;;;;;;4923455;28;20124;-77
2023/05/26 15:44:22;;;;;;;42.17;38.40;;;18.60;99.90;;;;;;4926881;28;20133;-76
2023/05/26 15:46:49;;;;;;;41.10;38.00;;;18.10;99.90;;;;;;4923360;28;20055;-76
2023/05/26 15:49:16;;;;;;;40.60;37.35;;;17.80;99.90;;;;;;4922649;28;20039;-76
2023/05/26 15:51:43;;;;;;;41.10;37.53;;;17.70;99.90;;;;;;4925537;28;20035;-76
2023/05/26 15:54:10;;;;;;;40.80;37.35;;;17.70;99.90;;;;;;4944148;28;20047;-75
2023/05/26 15:56:36;;;;;;;39.42;36.33;;;17.80;99.90;;;;;;4939485;28;20050;-78
2023/05/26 15:59:03;;;;;;;41.05;37.35;;;17.20;99.90;;;;;;4944004;28;20320;-78
2023/05/26 16:01:30;;;;;;;39.50;36.10;;;17.20;99.90;;;;;;4942375;28;20051;-79
2023/05/26 16:03:58;;;;;;;39.85;36.17;;;17.20;99.90;;;;;;4929369;28;20183;-78
2023/05/26 16:06:25;;;;;;;41.45;37.35;;;17.00;99.90;;;;;;4946008;28;20047;-76
2023/05/26 16:08:52;;;;;;;41.05;37.33;;;17.20;99.90;;;;;;4942525;28;20058;-78
2023/05/26 16:11:19;;;;;;;41.22;37.47;;;17.30;99.90;;;;;;4929888;28;20043;-80
2023/05/26 16:13:46;;;;;;;39.95;36.30;;;16.90;99.90;;;;;;4946989;28;20175;-79
2023/05/26 16:16:13;;;;;;;39.58;36.08;;;16.50;99.90;;;;;;4929907;28;20043;-79
2023/05/26 16:18:40;;;;;;;39.45;34.90;;;16.20;99.90;;;;;;4938592;28;20051;-78
2023/05/26 16:21:07;;;;;;;39.88;35.80;;;16.20;99.90;;;;;;4925477;28;20559;-77
2023/05/26 16:23:34;;;;;;;40.78;36.17;;;16.30;99.90;;;;;;4940983;28;20083;-77
2023/05/26 16:26:03;;;;;;;40.88;36.90;;;16.10;99.90;;;;;;4927093;28;20055;-78
2023/05/26 16:28:30;;;;;;;45.10;36.67;;;16.20;99.90;;;;;;4945775;28;20049;-78
2023/05/26 16:30:57;;;;;;;38.72;35.42;;;16.30;99.90;;;;;;4957883;28;20063;-78
2023/05/26 16:33:24;;;;;;;39.78;36.53;;;16.50;99.90;;;;;;4957531;28;20675;-78
2023/05/26 16:35:52;;;;;;;40.28;36.50;;;16.50;99.90;;;;;;4943963;28;20271;-78
2023/05/26 16:38:20;;;;;;;40.25;36.47;;;16.40;99.90;;;;;;4943641;28;20080;-76
2023/05/26 16:40:47;;;;;;;40.10;36.63;;;16.30;99.90;;;;;;4943053;28;20057;-77
2023/05/26 16:43:14;;;;;;;42.28;38.25;;;16.20;99.90;;;;;;4926139;28;20201;-77
2023/05/26 16:45:57;;;;;;;40.78;37.33;;;16.10;99.90;;;;;;4942387;28;20106;-77
2023/05/26 16:48:24;;;;;;;39.95;36.55;;;16.00;99.90;;;;;;4959606;28;20532;-77
2023/05/26 16:50:52;;;;;;;40.47;36.92;;;15.90;99.90;;;;;;4928661;28;20051;-76
2023/05/26 16:53:19;;;;;;;39.97;36.40;;;16.00;99.90;;;;;;4942053;28;20682;-77
2023/05/26 16:55:46;;;;;;;42.17;37.63;;;15.90;99.90;;;;;;4944867;28;20046;-76
2023/05/26 16:58:12;;;;;;;39.67;36.00;;;15.70;99.90;;;;;;4957187;28;20606;-77
2023/05/26 17:00:39;;;;;;;40.30;36.28;;;15.70;99.90;;;;;;4943055;28;20501;-77
2023/05/26 17:03:06;;;;;;;39.97;36.15;;;15.80;99.90;;;;;;4921639;28;20047;-77
2023/05/26 17:05:33;;;;;;;41.05;37.53;;;15.80;99.90;;;;;;4929733;28;20134;-77
2023/05/26 17:07:59;;;;;;;40.05;36.25;;;15.90;99.90;;;;;;4954952;28;20637;-77
2023/05/26 17:10:27;;;;;;;38.85;35.08;;;15.80;99.90;;;;;;4944666;28;20043;-77
2023/05/26 17:12:56;;;;;;;39.85;35.70;;;15.90;99.90;;;;;;4924021;28;20043;-76
2023/05/26 17:15:23;;;;;;;38.85;35.05;;;16.00;99.90;;;;;;4943910;28;20130;-75
2023/05/26 17:17:50;;;;;;;39.55;35.92;;;15.90;99.90;;;;;;4942099;28;20043;-77
2023/05/26 17:20:17;;;;;;;40.13;36.75;;;15.80;99.90;;;;;;4945319;28;20576;-77
2023/05/26 17:22:44;;;;;;;40.08;36.25;;;15.80;99.90;;;;;;4929560;28;20129;-76
2023/05/26 17:25:12;;;;;;;40.40;36.05;;;15.90;99.90;;;;;;4952652;28;20058;-78
2023/05/26 17:27:40;;;;;;;39.38;35.65;;;15.80;99.90;;;;;;4939922;28;20046;-77
2023/05/26 17:30:08;;;;;;;39.72;36.20;;;15.70;99.90;;;;;;4927972;28;20416;-76
2023/05/26 17:32:35;;;;;;;39.17;35.65;;;15.60;99.90;;;;;;4945448;28;20047;-77
2023/05/26 17:35:02;;;;;;;40.40;36.70;;;15.60;99.90;;;;;;4959881;28;20093;-77
2023/05/26 17:37:30;;;;;;;40.30;36.45;;;15.60;99.90;;;;;;4943934;28;20045;-77
2023/05/26 17:39:57;;;;;;;39.58;36.15;;;15.70;99.90;;;;;;4921155;28;20509;-77
2023/05/26 17:42:24;;;;;;;39.75;36.05;;;15.60;99.90;;;;;;4936746;28;20248;-76
2023/05/26 17:44:50;;;;;;;42.92;39.00;;;15.40;99.90;;;;;;4958660;28;20041;-77
2023/05/26 17:47:17;;;;;;;42.67;38.50;;;15.30;99.90;;;;;;4939279;28;20053;-76
2023/05/26 17:49:44;;;;;;;43.08;39.05;;;15.20;99.90;;;;;;4938320;28;20156;-77
2023/05/26 17:52:11;;;;;;;43.72;39.88;;;15.30;99.90;;;;;;4941687;28;20054;-77
2023/05/26 17:54:38;;;;;;;42.00;38.33;;;15.20;99.90;;;;;;4943248;28;20597;-77
2023/05/26 17:57:06;;;;;;;42.08;38.05;;;15.10;99.90;;;;;;4925966;28;20050;-77
2023/05/26 17:59:33;;;;;;;43.92;40.22;;;15.10;99.90;;;;;;4938619;28;20307;-77
2023/05/26 18:02:00;;;;;;;45.95;41.65;;;15.00;99.90;;;;;;4956658;28;20042;-77
2023/05/26 18:04:27;;;;;;;44.42;40.45;;;14.90;99.90;;;;;;4941452;28;20073;-78
2023/05/26 18:06:54;;;;;;;45.28;41.25;;;14.90;99.90;;;;;;4938084;28;20046;-77
2023/05/26 18:09:21;;;;;;;44.00;40.33;;;14.90;99.90;;;;;;4942604;28;20055;-77
2023/05/26 18:11:48;;;;;;;45.03;41.13;;;14.80;99.90;;;;;;4940813;28;20504;-78
2023/05/26 18:14:16;;;;;;;43.88;40.00;;;14.80;99.90;;;;;;4956028;28;20128;-77